Omega, Georgia
Current Conditions -  °F | °C
As of 11:35 AM on Monday 24 Nov 2014 (Local Time) from KTMA Reporting Station
Light Rain Light Rain  
Wind Chill: 68°   Ceiling: 5500
Heat Index: 68°   Visibility: 7mi
Dew Point: 67°   Wind: 6mph
Humidity: 98%   Direction: 200°SSW
Pressure: 29.9"   Gusts: NA
Location:  31.34°N, 83.59°W
Report Text: KTMA 241635Z AUTO 20005KT 7SM -RA BKN055 OVC065 20/20 A2990 RMK AO2 LTG DSNT E AND SW T02000196
Loading
Personal Weather Stations






























Interactive Weather Map New forecast layout! Learn more

10-Day Weather Forecast

Advertisements
Track Severe Weather on mobile